Terminal Aerodrome Forecast
Issued by NWS

Home | Current Version | Previous Version | Text Only | Print | Product List | Glossary On
Versions: 1 2 3 4 5 6 7 8 9 10 11 12 13 14 15 16 17
000
FTUS43 KSGF 212321
TAFJLN
TAF
KJLN 212321Z 2200/2224 16018G26KT P6SM SCT035 BKN070 WS020/17035KT
     FM220400 21017G25KT 6SM -SHRA BR VCTS BKN025CB OVC050
      WS020/19045KT
      TEMPO 2204/2207 30025G35KT 2SM +TSRA BR OVC020CB
     FM220800 32013KT 5SM SHRA BR VCTS OVC015CB
     FM220900 32009KT P6SM OVC015
     FM221400 32013G21KT P6SM SCT050=

USA.gov is the U.S. government's official web portal to all federal, state and local government web resources and services.